Time;durP1;ratioP1;P1;durP2;ratioP2;P2;SDS_P1;SDS_P2;PMS_P1;PMS_P2;Temp;Humidity;BMP_temperature;BMP_pressure;BME280_temperature;BME280_humidity;BME280_pressure;Samples;Min_cycle;Max_cycle;Signal;HPM_P1;HPM_P2
2022/07/20 00:02:26;;;;;;;2.33;1.70;;;30.20;99.90;;;;;;5021794;28;20213;-96
2022/07/20 00:04:57;;;;;;;2.00;1.60;;;30.10;99.90;;;;;;5021869;28;20277;-96
2022/07/20 00:07:32;;;;;;;2.38;1.60;;;29.80;99.90;;;;;;5020961;28;20241;-96
2022/07/20 00:12:39;;;;;;;2.00;1.60;;;30.00;99.90;;;;;;4980995;28;20229;-96
2022/07/20 00:15:10;;;;;;;1.73;1.63;;;30.00;99.90;;;;;;4981932;28;20333;-96
2022/07/20 00:17:45;;;;;;;1.60;1.50;;;30.00;99.90;;;;;;4963175;28;20302;-96
2022/07/20 00:20:18;;;;;;;2.47;1.60;;;29.90;99.90;;;;;;4966842;28;20665;-94
2022/07/20 00:34:34;;;;;;;2.42;1.50;;;29.70;99.90;;;;;;5056529;28;20205;-96
2022/07/20 00:37:31;;;;;;;2.63;1.70;;;29.60;99.90;;;;;;5056684;28;20212;-96
2022/07/20 00:48:28;;;;;;;3.73;2.13;;;29.70;99.90;;;;;;5207762;23;20311;-95
2022/07/20 00:54:06;;;;;;;4.38;3.97;;;29.50;99.90;;;;;;5047142;28;20201;-95
2022/07/20 00:56:40;;;;;;;2.03;1.83;;;29.40;99.90;;;;;;5054778;28;20204;-95
2022/07/20 00:59:13;;;;;;;3.43;2.13;;;29.40;99.90;;;;;;5060132;28;20189;-96
2022/07/20 01:01:45;;;;;;;4.63;2.37;;;29.40;99.90;;;;;;5058969;28;20204;-96
2022/07/20 01:12:23;;;;;;;5.90;2.10;;;30.40;99.90;;;;;;4996467;28;20215;-96
2022/07/20 01:14:56;;;;;;;1.50;1.40;;;30.70;99.90;;;;;;4997454;28;20229;-96
2022/07/20 01:17:27;;;;;;;4.20;1.50;;;31.20;99.90;;;;;;4987332;28;20226;-96
2022/07/20 01:20:04;;;;;;;3.10;1.60;;;31.40;99.90;;;;;;4990868;28;20207;-96
2022/07/20 01:25:18;;;;;;;8.98;7.20;;;31.30;99.90;;;;;;5051087;23;20247;-96
2022/07/20 01:38:37;;;;;;;1.48;1.38;;;32.00;99.90;;;;;;5013368;28;20241;-95
2022/07/20 01:50:11;;;;;;;1.85;1.70;;;32.40;99.90;;;;;;5020685;28;20201;-96
2022/07/20 01:52:44;;;;;;;2.22;1.55;;;31.90;99.90;;;;;;5021940;28;20221;-96
2022/07/20 01:55:15;;;;;;;2.75;1.50;;;32.20;99.90;;;;;;5020995;28;20721;-96
2022/07/20 01:57:49;;;;;;;1.50;1.25;;;31.50;99.90;;;;;;5020731;28;20213;-96
2022/07/20 02:00:20;;;;;;;1.50;1.15;;;31.70;99.90;;;;;;5021988;28;20236;-96
2022/07/20 02:02:53;;;;;;;1.85;1.48;;;32.00;99.90;;;;;;5021217;28;20229;-96
2022/07/20 02:05:25;;;;;;;3.15;1.95;;;32.20;99.90;;;;;;5020459;28;20308;-96
2022/07/20 02:07:57;;;;;;;5.57;2.20;;;31.90;99.90;;;;;;5022272;28;20239;-96
2022/07/20 02:10:30;;;;;;;2.10;1.65;;;31.60;99.90;;;;;;5025583;28;20202;-96
2022/07/20 02:13:18;;;;;;;1.90;1.15;;;30.80;99.90;;;;;;5023087;28;20216;-96
2022/07/20 02:18:37;;;;;;;2.10;1.70;;;30.10;99.90;;;;;;5021083;28;20292;-96
2022/07/20 02:21:09;;;;;;;2.80;1.75;;;29.20;99.90;;;;;;5022031;28;20205;-96
2022/07/20 02:23:40;;;;;;;2.13;1.73;;;28.80;99.90;;;;;;5026093;28;20235;-96
2022/07/20 02:26:12;;;;;;;3.43;1.60;;;28.40;99.90;;;;;;5023614;28;20233;-96
2022/07/20 02:28:50;;;;;;;4.63;2.13;;;27.30;99.90;;;;;;5023058;28;20713;-96
2022/07/20 02:31:23;;;;;;;3.90;1.90;;;27.00;99.90;;;;;;5024102;28;20267;-96
2022/07/20 02:34:02;;;;;;;2.70;1.80;;;26.80;99.90;;;;;;5025490;28;20281;-96
2022/07/20 02:36:34;;;;;;;2.33;1.67;;;26.60;99.90;;;;;;5024596;28;20236;-96
2022/07/20 02:39:14;;;;;;;2.67;1.63;;;26.30;99.90;;;;;;5022694;28;20260;-96
2022/07/20 02:41:47;;;;;;;4.27;1.90;;;26.10;99.90;;;;;;5020195;28;20210;-96
2022/07/20 02:46:54;;;;;;;1.63;1.47;;;25.60;99.90;;;;;;5013659;28;20237;-96
2022/07/20 02:49:26;;;;;;;2.20;1.70;;;25.50;99.90;;;;;;5004328;28;20241;-96
2022/07/20 02:54:53;;;;;;;4.17;1.97;;;25.30;99.90;;;;;;5008914;28;20222;-96
2022/07/20 03:07:14;;;;;;;4.73;2.13;;;24.80;99.90;;;;;;5037376;22;20252;-96
2022/07/20 03:13:07;;;;;;;2.53;1.83;;;24.60;99.90;;;;;;5031034;28;20206;-96
2022/07/20 03:21:46;;;;;;;2.23;1.80;;;24.20;99.90;;;;;;5031298;28;20702;-96
2022/07/20 03:40:44;;;;;;;2.50;2.10;;;23.40;99.90;;;;;;5011700;28;20214;-96
2022/07/20 03:43:25;;;;;;;3.00;2.20;;;23.30;99.90;;;;;;5010733;28;20278;-96
2022/07/20 03:45:59;;;;;;;3.67;2.03;;;23.30;99.90;;;;;;5010431;28;20224;-96
2022/07/20 03:51:25;;;;;;;3.27;2.10;;;23.10;99.90;;;;;;5010776;28;20221;-96
2022/07/20 03:54:05;;;;;;;4.47;2.17;;;23.00;99.90;;;;;;5010951;28;20209;-96
2022/07/20 03:56:59;;;;;;;6.50;2.30;;;22.90;99.90;;;;;;5010663;28;20202;-96
2022/07/20 03:59:47;;;;;;;3.07;2.07;;;22.80;99.90;;;;;;5013087;28;20229;-96
2022/07/20 04:07:59;;;;;;;3.17;2.20;;;22.40;99.90;;;;;;5030453;28;20205;-96
2022/07/20 04:16:09;;;;;;;3.20;2.40;;;22.20;99.90;;;;;;5031079;28;20213;-96
2022/07/20 04:18:54;;;;;;;3.73;2.20;;;22.10;99.90;;;;;;5023522;28;20275;-96
2022/07/20 04:21:39;;;;;;;3.43;2.30;;;22.00;99.90;;;;;;5025129;28;20213;-96
2022/07/20 04:24:12;;;;;;;3.13;2.03;;;22.00;99.90;;;;;;5019921;28;20236;-96
2022/07/20 04:26:44;;;;;;;4.07;2.07;;;21.90;99.90;;;;;;5020146;28;20214;-96
2022/07/20 04:29:20;;;;;;;7.40;2.53;;;21.80;99.90;;;;;;5023026;28;20287;-96
2022/07/20 04:31:55;;;;;;;2.33;2.10;;;21.70;99.90;;;;;;5031629;28;20239;-96
2022/07/20 04:34:27;;;;;;;3.27;2.20;;;21.60;99.90;;;;;;5036765;28;20189;-96
2022/07/20 04:36:59;;;;;;;3.50;2.33;;;21.50;99.90;;;;;;5036056;28;20201;-96
2022/07/20 04:39:32;;;;;;;2.50;2.27;;;21.40;99.90;;;;;;5036215;28;20217;-96
2022/07/20 04:42:14;;;;;;;4.17;2.40;;;21.30;99.90;;;;;;5032481;28;20217;-96
2022/07/20 04:44:50;;;;;;;3.37;2.57;;;21.20;99.90;;;;;;5033887;28;20253;-96
2022/07/20 04:47:21;;;;;;;2.47;2.27;;;21.20;99.90;;;;;;5029540;28;20681;-96
2022/07/20 04:52:31;;;;;;;2.37;2.00;;;21.10;99.90;;;;;;5274970;23;20272;-96
2022/07/20 04:55:05;;;;;;;2.43;1.80;;;21.00;99.90;;;;;;5036746;28;20236;-96
2022/07/20 04:57:49;;;;;;;2.70;1.90;;;21.00;99.90;;;;;;5163487;23;20233;-96
2022/07/20 05:00:53;;;;;;;3.70;2.20;;;20.90;99.90;;;;;;5015145;28;20264;-96
2022/07/20 05:03:40;;;;;;;2.47;2.17;;;20.80;99.90;;;;;;5016599;28;20233;-96
2022/07/20 05:06:22;;;;;;;2.30;1.83;;;20.80;99.90;;;;;;5016697;28;20216;-96
2022/07/20 05:11:39;;;;;;;2.20;2.00;;;20.70;99.90;;;;;;5019927;28;20233;-96
2022/07/20 05:14:12;;;;;;;3.20;2.10;;;20.70;99.90;;;;;;5020593;28;20233;-95
2022/07/20 05:20:26;;;;;;;5.20;2.00;;;20.60;99.90;;;;;;5011062;28;20298;-96
2022/07/20 05:22:57;;;;;;;3.43;2.00;;;20.50;99.90;;;;;;5009300;28;20659;-96
2022/07/20 05:25:39;;;;;;;2.67;1.70;;;20.60;99.90;;;;;;5003577;28;20218;-96
2022/07/20 05:28:17;;;;;;;3.30;2.23;;;20.60;99.90;;;;;;5006326;28;20202;-96
2022/07/20 05:30:49;;;;;;;3.00;2.00;;;20.50;99.90;;;;;;5006305;28;20235;-96
2022/07/20 05:33:23;;;;;;;3.63;2.20;;;20.50;99.90;;;;;;5006124;28;20229;-96
2022/07/20 05:35:57;;;;;;;3.03;2.20;;;20.50;99.90;;;;;;5003708;28;20206;-96
2022/07/20 05:38:29;;;;;;;2.53;2.20;;;20.50;99.90;;;;;;5008359;28;20207;-96
2022/07/20 05:41:08;;;;;;;2.00;1.80;;;20.40;99.90;;;;;;4984832;28;20290;-96
2022/07/20 05:46:28;;;;;;;2.60;2.20;;;20.30;99.90;;;;;;4985536;28;20211;-96
2022/07/20 05:49:01;;;;;;;3.40;2.30;;;20.20;99.90;;;;;;4984334;28;20251;-96
2022/07/20 05:51:36;;;;;;;2.40;2.20;;;20.10;99.90;;;;;;4985620;28;20637;-94
2022/07/20 05:54:12;;;;;;;4.30;2.27;;;20.10;99.90;;;;;;5000769;28;20226;-96
2022/07/20 05:56:51;;;;;;;3.43;2.30;;;20.10;99.90;;;;;;5008442;28;20701;-96
2022/07/20 05:59:24;;;;;;;2.30;2.10;;;20.00;99.90;;;;;;5006095;28;20214;-96
2022/07/20 06:01:56;;;;;;;3.70;2.20;;;19.90;99.90;;;;;;5018765;28;20194;-96
2022/07/20 06:04:28;;;;;;;2.20;2.00;;;19.90;99.90;;;;;;5018912;28;20202;-96
2022/07/20 06:07:22;;;;;;;2.90;2.10;;;19.80;99.90;;;;;;5019521;28;20269;-96
2022/07/20 06:09:55;;;;;;;2.20;1.90;;;19.70;99.90;;;;;;5019618;28;20253;-96
2022/07/20 06:12:31;;;;;;;3.17;2.30;;;19.70;99.90;;;;;;5005937;28;20206;-96
2022/07/20 06:15:04;;;;;;;2.53;2.10;;;19.70;99.90;;;;;;5005211;28;20211;-96
2022/07/20 06:17:39;;;;;;;2.83;2.00;;;19.60;99.90;;;;;;5004392;28;20297;-95
2022/07/20 06:20:16;;;;;;;2.20;2.00;;;19.50;99.90;;;;;;5001366;28;20209;-96
2022/07/20 06:22:58;;;;;;;2.27;2.07;;;19.40;99.90;;;;;;5002046;28;20624;-96
2022/07/20 06:25:34;;;;;;;2.03;1.83;;;19.40;99.90;;;;;;5001632;28;20210;-96
2022/07/20 06:34:10;;;;;;;3.13;1.70;;;19.30;99.90;;;;;;5002571;28;20229;-96
2022/07/20 06:36:44;;;;;;;2.13;1.83;;;19.20;99.90;;;;;;5000195;28;20210;-96
2022/07/20 06:39:18;;;;;;;3.10;2.07;;;19.10;99.90;;;;;;5001433;28;20312;-96
2022/07/20 06:41:50;;;;;;;2.30;1.70;;;19.00;99.90;;;;;;4999097;28;20721;-96
2022/07/20 06:44:23;;;;;;;2.30;2.10;;;19.00;99.90;;;;;;5005887;28;20221;-96
2022/07/20 06:47:04;;;;;;;2.47;2.17;;;18.90;99.90;;;;;;5008806;28;20211;-96
2022/07/20 06:49:39;;;;;;;2.90;1.70;;;18.80;99.90;;;;;;5001285;28;20246;-96
2022/07/20 06:52:21;;;;;;;2.73;2.10;;;18.80;99.90;;;;;;4999804;28;20214;-96
2022/07/20 06:54:55;;;;;;;2.97;1.90;;;18.60;99.90;;;;;;5001694;28;20221;-96
2022/07/20 06:57:29;;;;;;;1.90;1.73;;;18.60;99.90;;;;;;4999884;28;20225;-96
2022/07/20 07:00:02;;;;;;;2.60;2.27;;;18.50;99.90;;;;;;5001910;28;20265;-96
2022/07/20 07:02:36;;;;;;;2.37;1.67;;;18.50;99.90;;;;;;4999044;28;20229;-96
2022/07/20 07:08:07;;;;;;;1.67;1.40;;;18.40;99.90;;;;;;5004567;28;20207;-96
2022/07/20 07:10:42;;;;;;;1.17;1.07;;;18.40;99.90;;;;;;4999233;28;20284;-95
2022/07/20 07:13:15;;;;;;;3.37;1.50;;;18.40;99.90;;;;;;4998922;28;20205;-96
2022/07/20 07:15:47;;;;;;;3.20;1.33;;;18.30;99.90;;;;;;4999785;28;20218;-96
2022/07/20 07:18:21;;;;;;;1.70;1.53;;;18.30;99.90;;;;;;4999694;28;20229;-96
2022/07/20 07:23:37;;;;;;;2.30;1.33;;;18.20;99.90;;;;;;4999022;28;20201;-96
2022/07/20 07:26:14;;;;;;;2.50;1.37;;;18.20;99.90;;;;;;4999418;28;20241;-96
2022/07/20 07:28:49;;;;;;;1.67;1.40;;;18.10;99.90;;;;;;4999332;28;20221;-96
2022/07/20 07:31:22;;;;;;;3.30;1.37;;;18.10;99.90;;;;;;5006367;28;20225;-96
2022/07/20 07:33:56;;;;;;;3.13;1.50;;;18.00;99.90;;;;;;5013910;28;20210;-96
2022/07/20 07:36:29;;;;;;;1.83;1.37;;;18.00;99.90;;;;;;5010946;28;20202;-95
2022/07/20 07:39:02;;;;;;;2.43;1.40;;;17.90;99.90;;;;;;5010476;28;20213;-96
2022/07/20 07:41:40;;;;;;;2.63;1.40;;;17.90;99.90;;;;;;4998273;28;20240;-96
2022/07/20 07:44:12;;;;;;;2.13;1.67;;;17.90;99.90;;;;;;5000018;28;20653;-96
2022/07/20 07:46:43;;;;;;;2.00;1.50;;;17.80;99.90;;;;;;4997864;28;20206;-96
2022/07/20 07:49:15;;;;;;;1.70;1.50;;;17.80;99.90;;;;;;4998507;28;20222;-95
2022/07/20 07:51:48;;;;;;;3.10;1.90;;;17.70;99.90;;;;;;5000532;28;20256;-96
2022/07/20 07:54:25;;;;;;;1.83;1.67;;;17.70;99.90;;;;;;5005918;28;20210;-96
2022/07/20 07:56:59;;;;;;;2.53;1.60;;;17.60;99.90;;;;;;4999554;28;20230;-96
2022/07/20 07:59:30;;;;;;;3.23;1.53;;;17.60;99.90;;;;;;5004021;28;20238;-96
2022/07/20 08:02:05;;;;;;;2.17;1.70;;;17.50;99.90;;;;;;5000574;28;20241;-96
2022/07/20 08:04:38;;;;;;;3.57;1.93;;;17.50;99.90;;;;;;5003055;28;20210;-96
2022/07/20 08:07:10;;;;;;;2.77;2.10;;;17.50;99.90;;;;;;4998882;28;20207;-96
2022/07/20 08:09:41;;;;;;;3.80;2.03;;;17.40;99.90;;;;;;4998952;28;20214;-96
2022/07/20 08:12:15;;;;;;;1.73;1.50;;;17.40;99.90;;;;;;4997447;28;20268;-96
2022/07/20 08:14:48;;;;;;;2.67;1.57;;;17.40;99.90;;;;;;4999330;28;20206;-96
2022/07/20 08:17:20;;;;;;;2.63;1.50;;;17.30;99.90;;;;;;4981959;28;20321;-96
2022/07/20 08:19:56;;;;;;;2.70;1.20;;;17.30;99.90;;;;;;4998833;28;20218;-96
2022/07/20 08:22:31;;;;;;;4.60;1.60;;;17.30;99.90;;;;;;4999736;28;20214;-96
2022/07/20 08:25:03;;;;;;;2.80;1.60;;;17.30;99.90;;;;;;4979254;28;20217;-96
2022/07/20 08:27:38;;;;;;;1.90;1.60;;;17.20;99.90;;;;;;4979290;28;20211;-96
2022/07/20 08:30:15;;;;;;;3.13;1.60;;;17.20;99.90;;;;;;4979120;28;20214;-96
2022/07/20 08:33:06;;;;;;;1.50;1.40;;;17.10;99.90;;;;;;4981259;28;20289;-96
2022/07/20 08:35:39;;;;;;;2.90;1.80;;;17.10;99.90;;;;;;4978495;28;20210;-96
2022/07/20 08:38:11;;;;;;;2.77;1.27;;;17.10;99.90;;;;;;4978082;28;20666;-96
2022/07/20 08:40:44;;;;;;;1.70;1.60;;;17.00;99.90;;;;;;4979122;28;20210;-94
2022/07/20 08:43:18;;;;;;;2.40;1.50;;;17.00;99.90;;;;;;4981139;28;20265;-96
2022/07/20 08:45:51;;;;;;;2.90;1.30;;;16.90;99.90;;;;;;4982844;28;20222;-96
2022/07/20 08:48:22;;;;;;;1.90;1.43;;;16.90;99.90;;;;;;4982483;28;20215;-95
2022/07/20 08:50:55;;;;;;;3.63;1.40;;;16.80;99.90;;;;;;4981862;28;20222;-95
2022/07/20 08:53:27;;;;;;;1.57;1.00;;;16.80;99.90;;;;;;4989080;28;20225;-96
2022/07/20 08:55:59;;;;;;;2.17;1.33;;;16.80;99.90;;;;;;5001628;28;20245;-96
2022/07/20 08:58:35;;;;;;;3.00;1.53;;;16.70;99.90;;;;;;5001617;28;20238;-96
2022/07/20 09:01:08;;;;;;;4.23;1.67;;;16.70;99.90;;;;;;5001581;28;20305;-96
2022/07/20 09:03:44;;;;;;;1.60;1.20;;;16.70;99.90;;;;;;5002208;28;20667;-94
2022/07/20 09:06:20;;;;;;;1.77;1.47;;;16.70;99.90;;;;;;5002329;28;20216;-96
2022/07/20 09:09:03;;;;;;;3.00;1.97;;;16.70;99.90;;;;;;5001884;28;20214;-96
2022/07/20 09:11:35;;;;;;;2.57;1.80;;;16.70;99.90;;;;;;5000696;28;20242;-96
2022/07/20 09:14:09;;;;;;;3.23;1.70;;;16.60;99.90;;;;;;5001885;28;20206;-96
2022/07/20 09:16:46;;;;;;;2.60;1.60;;;16.60;99.90;;;;;;5001357;28;20218;-96
2022/07/20 09:19:19;;;;;;;3.00;1.80;;;16.50;99.90;;;;;;5001728;28;20221;-95
2022/07/20 09:22:06;;;;;;;5.87;2.20;;;16.50;99.90;;;;;;5028866;23;20674;-96
2022/07/20 09:24:38;;;;;;;4.37;1.90;;;16.50;99.90;;;;;;4962306;28;20701;-95
2022/07/20 09:27:10;;;;;;;1.77;1.50;;;16.50;99.90;;;;;;4962663;29;20235;-96
2022/07/20 09:30:07;;;;;;;3.03;1.97;;;16.40;99.90;;;;;;4962794;29;20287;-95
2022/07/20 09:32:53;;;;;;;2.97;1.87;;;16.40;99.90;;;;;;4962675;28;20243;-95
2022/07/20 09:35:26;;;;;;;3.40;2.00;;;16.40;99.90;;;;;;4962238;28;20215;-95
2022/07/20 09:38:02;;;;;;;2.60;1.67;;;16.30;99.90;;;;;;4964008;28;20223;-95
2022/07/20 09:40:43;;;;;;;3.40;1.70;;;16.30;99.90;;;;;;4963234;28;20218;-95
2022/07/20 09:43:31;;;;;;;4.57;1.87;;;16.30;99.90;;;;;;4965224;28;20747;-94
2022/07/20 09:46:17;;;;;;;3.97;1.87;;;16.30;99.90;;;;;;4965579;28;20365;-95
2022/07/20 09:48:51;;;;;;;3.67;1.83;;;16.30;99.90;;;;;;4968481;28;20207;-95
2022/07/20 09:51:25;;;;;;;3.60;1.63;;;16.30;99.90;;;;;;4974972;28;20239;-95
2022/07/20 09:54:06;;;;;;;4.93;1.70;;;16.20;99.90;;;;;;4979128;28;20206;-95
2022/07/20 09:56:40;;;;;;;3.60;1.60;;;16.20;99.90;;;;;;4980353;28;20200;-96
2022/07/20 09:59:13;;;;;;;2.43;1.70;;;16.20;99.90;;;;;;4979654;28;20199;-96
2022/07/20 10:01:48;;;;;;;1.57;1.47;;;16.20;99.90;;;;;;4977466;29;20220;-96
2022/07/20 10:04:23;;;;;;;2.20;1.70;;;16.20;99.90;;;;;;4976266;29;20207;-95
2022/07/20 10:06:55;;;;;;;2.30;1.90;;;16.10;99.90;;;;;;4971086;28;20211;-96
2022/07/20 10:09:28;;;;;;;2.77;1.77;;;16.10;99.90;;;;;;4971502;28;20219;-96
2022/07/20 10:12:01;;;;;;;2.13;1.60;;;16.10;99.90;;;;;;4969574;28;20236;-96
2022/07/20 10:14:34;;;;;;;2.27;2.00;;;16.10;99.90;;;;;;4971849;29;20314;-96
2022/07/20 10:17:09;;;;;;;4.00;2.10;;;16.10;99.90;;;;;;4970921;28;20221;-96
2022/07/20 10:19:45;;;;;;;3.10;1.93;;;16.00;99.90;;;;;;4972185;29;20223;-96
2022/07/20 10:22:18;;;;;;;4.23;2.03;;;16.00;99.90;;;;;;4975492;29;20218;-96
2022/07/20 10:25:18;;;;;;;3.20;1.97;;;16.00;99.90;;;;;;4978362;29;20196;-96
2022/07/20 10:27:50;;;;;;;4.00;2.00;;;16.00;99.90;;;;;;4978201;28;20199;-96
2022/07/20 10:30:22;;;;;;;1.90;1.67;;;15.90;99.90;;;;;;4963243;29;20208;-96
2022/07/20 10:33:05;;;;;;;2.60;1.93;;;15.90;99.90;;;;;;4961530;29;20258;-96
2022/07/20 10:35:38;;;;;;;4.73;1.77;;;15.90;99.90;;;;;;4961668;29;20207;-96
2022/07/20 10:38:10;;;;;;;2.90;1.87;;;15.90;99.90;;;;;;4961459;28;20219;-96
2022/07/20 10:44:24;;;;;;;3.23;1.80;;;15.90;99.90;;;;;;4962274;29;20212;-96
2022/07/20 10:46:58;;;;;;;2.93;1.60;;;15.90;99.90;;;;;;4961174;28;20242;-96
2022/07/20 10:50:04;;;;;;;4.07;1.70;;;15.90;99.90;;;;;;4961151;29;20312;-96
2022/07/20 10:52:37;;;;;;;3.27;1.83;;;15.90;99.90;;;;;;4960973;28;20236;-96
2022/07/20 10:55:29;;;;;;;3.57;1.70;;;15.80;99.90;;;;;;4961224;29;20220;-95
2022/07/20 10:58:02;;;;;;;2.43;1.43;;;15.80;99.90;;;;;;4961064;29;20208;-96
2022/07/20 11:00:35;;;;;;;2.80;1.50;;;15.80;99.90;;;;;;4960433;29;20218;-96
2022/07/20 11:06:12;;;;;;;2.70;1.40;;;15.80;99.90;;;;;;4961925;28;20724;-96
2022/07/20 11:08:52;;;;;;;1.60;1.47;;;15.70;99.90;;;;;;4963053;29;20219;-96
2022/07/20 11:11:26;;;;;;;1.77;1.50;;;15.70;99.90;;;;;;4960452;28;20206;-94
2022/07/20 11:13:58;;;;;;;3.13;2.13;;;15.70;99.90;;;;;;4960669;28;20227;-96
2022/07/20 11:16:32;;;;;;;2.87;1.63;;;15.70;99.90;;;;;;4959475;29;20207;-96
2022/07/20 11:19:05;;;;;;;3.87;1.80;;;15.70;99.90;;;;;;4959888;28;20231;-96
2022/07/20 11:21:40;;;;;;;4.27;1.53;;;15.70;99.90;;;;;;4959360;29;20274;-96
2022/07/20 11:24:24;;;;;;;2.70;1.30;;;15.70;99.90;;;;;;4960175;28;20289;-96
2022/07/20 11:26:57;;;;;;;1.77;1.53;;;15.60;99.90;;;;;;4960569;29;20258;-96
2022/07/20 11:29:29;;;;;;;1.50;1.40;;;15.70;99.90;;;;;;4943459;29;20216;-96
2022/07/20 11:32:10;;;;;;;2.50;1.20;;;15.60;99.90;;;;;;4941676;29;20308;-96
2022/07/20 11:34:51;;;;;;;1.83;1.50;;;15.60;99.90;;;;;;4943363;29;20286;-95
2022/07/20 11:37:25;;;;;;;2.03;1.47;;;15.60;99.90;;;;;;4943728;29;20298;-95
2022/07/20 11:39:57;;;;;;;3.63;1.90;;;15.70;99.90;;;;;;4950371;29;20192;-96
2022/07/20 11:42:29;;;;;;;2.30;1.60;;;15.70;99.90;;;;;;4957730;28;20200;-96
2022/07/20 11:45:05;;;;;;;1.93;1.60;;;15.70;99.90;;;;;;4959582;28;20208;-96
2022/07/20 11:47:38;;;;;;;3.23;1.60;;;15.70;99.90;;;;;;4971112;28;20247;-96
2022/07/20 11:50:24;;;;;;;2.50;1.83;;;15.70;99.90;;;;;;4973311;28;20222;-96
2022/07/20 11:52:58;;;;;;;3.67;1.77;;;15.70;99.90;;;;;;4960232;28;20243;-96
2022/07/20 11:55:38;;;;;;;3.23;1.80;;;15.70;99.90;;;;;;4963143;28;20255;-96
2022/07/20 11:58:11;;;;;;;2.93;1.77;;;15.70;99.90;;;;;;4963351;28;20289;-96
2022/07/20 12:00:46;;;;;;;3.93;1.97;;;15.60;99.90;;;;;;4960657;29;20212;-95
2022/07/20 12:03:17;;;;;;;2.37;1.90;;;15.70;99.90;;;;;;4960282;28;20241;-95
2022/07/20 12:05:48;;;;;;;2.83;1.83;;;15.60;99.90;;;;;;4959939;29;20226;-94
2022/07/20 12:08:26;;;;;;;2.10;1.90;;;15.60;99.90;;;;;;4959961;29;20274;-96
2022/07/20 12:10:59;;;;;;;3.57;1.77;;;15.60;99.90;;;;;;4960838;29;20212;-95
2022/07/20 12:13:33;;;;;;;2.17;1.73;;;15.60;99.90;;;;;;4961967;29;20704;-96
2022/07/20 12:16:09;;;;;;;2.33;1.90;;;15.50;99.90;;;;;;4960333;29;20243;-95
2022/07/20 12:18:44;;;;;;;2.17;1.83;;;15.50;99.90;;;;;;4959812;29;20267;-96
2022/07/20 12:21:17;;;;;;;2.93;2.23;;;15.50;99.90;;;;;;4959849;29;20214;-96
2022/07/20 12:23:53;;;;;;;3.37;2.23;;;15.50;99.90;;;;;;4960100;29;20673;-95
2022/07/20 12:26:29;;;;;;;2.20;1.83;;;15.50;99.90;;;;;;4960800;29;20661;-96
2022/07/20 12:29:21;;;;;;;2.90;2.20;;;15.50;99.90;;;;;;4960871;29;20203;-95
2022/07/20 12:32:04;;;;;;;2.63;2.00;;;15.50;99.90;;;;;;4969931;29;20212;-95
2022/07/20 12:34:51;;;;;;;2.50;2.27;;;15.40;99.90;;;;;;4976639;29;20223;-95
2022/07/20 12:37:23;;;;;;;2.10;1.90;;;15.50;99.90;;;;;;4976912;28;20219;-95
2022/07/20 12:39:59;;;;;;;2.53;2.33;;;15.40;99.90;;;;;;4977186;28;20199;-96
2022/07/20 12:42:35;;;;;;;5.77;2.20;;;15.40;99.90;;;;;;4977195;28;20195;-96
2022/07/20 12:45:11;;;;;;;2.93;2.30;;;15.40;99.90;;;;;;4976082;28;20187;-96
2022/07/20 12:47:43;;;;;;;3.53;2.70;;;15.40;99.90;;;;;;4977370;28;20222;-95
2022/07/20 12:50:35;;;;;;;2.47;2.27;;;15.40;99.90;;;;;;4975826;28;20255;-95
2022/07/20 12:53:06;;;;;;;4.07;2.67;;;15.40;99.90;;;;;;4974395;28;20239;-96
2022/07/20 12:55:44;;;;;;;5.27;2.50;;;15.50;99.90;;;;;;4964787;29;20286;-95
2022/07/20 12:58:18;;;;;;;2.83;2.50;;;15.50;99.90;;;;;;4965185;29;20212;-96
2022/07/20 13:00:50;;;;;;;5.07;2.90;;;15.50;99.90;;;;;;4962277;29;20208;-96
2022/07/20 13:03:22;;;;;;;5.43;3.07;;;15.50;99.90;;;;;;4961418;29;20219;-95
2022/07/20 13:06:00;;;;;;;3.70;2.40;;;15.50;99.90;;;;;;4961783;29;20215;-96
2022/07/20 13:08:34;;;;;;;4.77;2.87;;;15.50;99.90;;;;;;4961012;29;20263;-95
2022/07/20 13:11:08;;;;;;;3.40;3.03;;;15.60;99.90;;;;;;4963719;29;20211;-95
2022/07/20 13:13:38;;;;;;;3.67;2.73;;;15.60;99.90;;;;;;4970718;29;20235;-95
2022/07/20 13:16:19;;;;;;;3.53;3.10;;;15.60;99.90;;;;;;4969858;29;20230;-95
2022/07/20 13:18:52;;;;;;;3.80;2.70;;;15.60;99.90;;;;;;4969249;29;20212;-96
2022/07/20 13:21:25;;;;;;;4.17;2.80;;;15.60;99.90;;;;;;4966388;29;20225;-96
2022/07/20 13:23:56;;;;;;;4.67;3.20;;;15.60;99.90;;;;;;4967949;28;20195;-95
2022/07/20 13:26:32;;;;;;;4.23;3.17;;;15.60;99.90;;;;;;4964842;28;20735;-95
2022/07/20 13:29:05;;;;;;;4.37;3.00;;;15.60;99.90;;;;;;4961029;28;20211;-95
2022/07/20 13:31:37;;;;;;;5.43;2.87;;;15.70;99.90;;;;;;4965343;28;20251;-96
2022/07/20 13:34:25;;;;;;;7.10;2.97;;;15.70;99.90;;;;;;4966561;28;20247;-95
2022/07/20 13:36:56;;;;;;;5.07;3.20;;;15.70;99.90;;;;;;4963829;28;20235;-95
2022/07/20 13:39:27;;;;;;;3.10;2.70;;;15.70;99.90;;;;;;4964025;28;20241;-95
2022/07/20 13:42:07;;;;;;;4.90;3.07;;;15.70;99.90;;;;;;4962946;28;20270;-95
2022/07/20 13:44:38;;;;;;;5.03;3.17;;;15.80;99.90;;;;;;4963758;28;20211;-95
2022/07/20 13:47:10;;;;;;;2.87;2.50;;;15.80;99.90;;;;;;4964433;28;20216;-95
2022/07/20 13:49:46;;;;;;;5.07;2.80;;;15.90;99.90;;;;;;4964295;28;20330;-95
2022/07/20 13:52:19;;;;;;;3.03;2.37;;;15.90;99.90;;;;;;4965181;28;20219;-96
2022/07/20 13:54:53;;;;;;;4.17;2.50;;;16.00;99.90;;;;;;4967673;29;20654;-95
2022/07/20 13:57:27;;;;;;;4.57;2.70;;;16.00;99.90;;;;;;4963488;28;20551;-95
2022/07/20 13:59:58;;;;;;;6.00;2.77;;;16.10;99.90;;;;;;4964871;28;20239;-96
2022/07/20 14:02:32;;;;;;;3.57;2.87;;;16.20;99.90;;;;;;4963404;28;20258;-96
2022/07/20 14:05:05;;;;;;;3.80;2.50;;;16.20;99.90;;;;;;4966188;28;20224;-96
2022/07/20 14:07:39;;;;;;;3.40;2.60;;;16.20;99.90;;;;;;4963926;28;20215;-95
2022/07/20 14:10:12;;;;;;;4.37;2.77;;;16.30;99.90;;;;;;4962931;28;20239;-96
2022/07/20 14:12:47;;;;;;;6.17;2.70;;;16.40;99.90;;;;;;4963663;28;20271;-96
2022/07/20 14:15:21;;;;;;;2.73;2.10;;;16.40;99.90;;;;;;4963046;28;20231;-96
2022/07/20 14:18:04;;;;;;;2.60;2.40;;;16.50;99.90;;;;;;4964587;28;20211;-95
2022/07/20 14:20:36;;;;;;;4.40;2.43;;;16.50;99.90;;;;;;4962253;28;20270;-95
2022/07/20 14:23:29;;;;;;;7.67;2.20;;;16.70;99.90;;;;;;4963889;28;20247;-96
2022/07/20 14:26:01;;;;;;;1.90;1.70;;;16.90;99.90;;;;;;4966875;28;20275;-95
2022/07/20 14:28:37;;;;;;;2.60;1.70;;;16.90;99.90;;;;;;4964768;28;20216;-96
2022/07/20 14:34:04;;;;;;;2.20;1.97;;;17.00;99.90;;;;;;4969938;28;20607;-95
2022/07/20 14:39:41;;;;;;;5.07;1.60;;;17.10;99.90;;;;;;4966183;28;20212;-96
2022/07/20 14:42:18;;;;;;;3.93;1.50;;;17.10;99.90;;;;;;4971261;28;20247;-96
2022/07/20 14:45:07;;;;;;;2.23;1.50;;;17.20;99.90;;;;;;4973659;29;20211;-96
2022/07/20 14:47:38;;;;;;;1.40;1.20;;;17.30;99.90;;;;;;4963715;28;20216;-96
2022/07/20 14:50:11;;;;;;;2.47;1.30;;;17.70;99.90;;;;;;4968139;29;20215;-96
2022/07/20 14:52:43;;;;;;;1.13;0.97;;;18.30;99.90;;;;;;4962535;29;20258;-96
2022/07/20 14:55:17;;;;;;;1.83;1.00;;;19.00;99.90;;;;;;4975827;29;20266;-96
2022/07/20 14:57:53;;;;;;;1.57;1.00;;;19.70;99.90;;;;;;4978012;28;20211;-96
2022/07/20 15:00:58;;;;;;;1.93;1.00;;;20.20;99.90;;;;;;4976910;28;20216;-96
2022/07/20 15:03:36;;;;;;;2.03;0.90;;;20.70;99.90;;;;;;4976913;28;20274;-96
2022/07/20 15:21:04;;;;;;;1.60;1.17;;;22.00;99.90;;;;;;4978146;28;20231;-96
2022/07/20 15:23:44;;;;;;;2.90;1.40;;;22.00;99.90;;;;;;4976497;28;20208;-96
2022/07/20 15:29:04;;;;;;;1.83;1.27;;;22.40;99.90;;;;;;4962550;28;20278;-96
2022/07/20 15:31:58;;;;;;;1.23;1.00;;;22.30;99.90;;;;;;4961379;28;20577;-96
2022/07/20 15:34:45;;;;;;;1.77;1.00;;;21.70;99.90;;;;;;4963776;28;20672;-94
2022/07/20 15:37:19;;;;;;;2.40;0.90;;;21.40;99.90;;;;;;4961998;28;20219;-95
2022/07/20 15:43:00;;;;;;;2.20;1.10;;;20.90;99.90;;;;;;4975057;28;20735;-96
2022/07/20 15:48:33;;;;;;;1.20;1.10;;;20.80;99.90;;;;;;4966508;28;20677;-96
2022/07/20 15:51:06;;;;;;;1.20;1.00;;;20.70;99.90;;;;;;5004621;23;21466;-96
2022/07/20 15:53:39;;;;;;;2.53;1.40;;;20.90;99.90;;;;;;5003025;28;20634;-96
2022/07/20 15:56:12;;;;;;;3.37;1.00;;;20.90;99.90;;;;;;5000761;28;20206;-96
2022/07/20 15:59:00;;;;;;;2.53;1.30;;;21.00;99.90;;;;;;4654438;28;10001152;-96
2022/07/20 16:01:33;;;;;;;2.93;1.33;;;21.00;99.90;;;;;;4978280;28;20202;-96
2022/07/20 16:04:09;;;;;;;2.63;1.10;;;21.00;99.90;;;;;;4979375;28;20234;-96
2022/07/20 16:06:41;;;;;;;2.70;1.13;;;21.00;99.90;;;;;;4979723;28;20213;-96
2022/07/20 16:09:15;;;;;;;1.83;1.03;;;21.10;99.90;;;;;;4980189;28;20237;-96
2022/07/20 16:14:45;;;;;;;2.47;1.40;;;21.20;99.90;;;;;;4986576;28;20596;-96
2022/07/20 16:17:18;;;;;;;2.23;1.50;;;21.10;99.90;;;;;;4989882;28;20210;-96
2022/07/20 16:19:50;;;;;;;5.33;1.60;;;21.10;99.90;;;;;;5000517;28;20218;-96
2022/07/20 16:22:29;;;;;;;2.00;1.40;;;21.00;99.90;;;;;;4999925;28;20702;-96
2022/07/20 16:25:05;;;;;;;2.47;1.30;;;21.10;99.90;;;;;;5001789;28;20210;-96
2022/07/20 16:27:48;;;;;;;2.30;1.40;;;21.00;99.90;;;;;;5003332;28;20289;-96